ADDS METAR Data INFO
IDs: Format: Raw Decoded Include TAF

Data at: 2247 UTC 11 Dec 2017

KSVH 112225Z AUTO 00000KT 10SM CLR 09/M03 A2996 RMK AO2 T00861030
KSVH 112205Z AUTO 18003KT 10SM CLR 10/M03 A2997 RMK AO2 T00951035
KSVH 112145Z AUTO 19003KT 10SM CLR 10/M04 A2997 RMK AO2 T01021037
KSVH 112125Z AUTO 19003KT 10SM CLR 11/M04 A2997 RMK AO2 T01081039
KSVH 112105Z AUTO 19004KT 10SM CLR 11/M04 A2997 RMK AO2 T01131045
KSVH 112045Z AUTO 19004KT 10SM CLR 12/M05 A2997 RMK AO2 T01171049
KSVH 112025Z AUTO 18005KT 10SM CLR 12/M05 A2997 RMK AO2 T01201049
KSVH 112005Z AUTO 20007KT 10SM CLR 12/M06 A2998 RMK AO2 T01201058
KSVH 111945Z AUTO 24004KT 10SM CLR 12/M06 A2999 RMK AO2 T01171064
KSVH 111925Z AUTO 00000KT 10SM CLR 12/M05 A3000 RMK AO2 T01171055
KSVH 111905Z AUTO 19003KT 10SM CLR 11/M06 A3001 RMK AO2 T01131062
KSVH 111845Z AUTO 18003KT 10SM CLR 11/M06 A3002 RMK AO2 T01101057
KSVH 111825Z AUTO 23004KT 10SM CLR 11/M05 A3003 RMK AO2 T01061051
KSVH 111805Z AUTO 24003KT 10SM CLR 11/M04 A3004 RMK AO2 T01061043
KSVH 111745Z AUTO 00000KT 10SM CLR 10/M05 A3005 RMK AO2 T00981054
KSVH 111725Z AUTO 23005KT 10SM CLR 10/M05 A3006 RMK AO2 T00951047
KSVH 111705Z AUTO 23006KT 10SM CLR 09/M04 A3007 RMK AO2 T00891039
KSVH 111645Z AUTO 24004KT 10SM CLR 09/M04 A3008 RMK AO2 T00861038
KSVH 111625Z AUTO 23003KT 10SM CLR 08/M05 A3009 RMK AO2 T00811051
KSVH 111605Z AUTO 27003KT 10SM CLR 08/M05 A3009 RMK AO2 T00771054
KSVH 111545Z AUTO 00000KT 10SM CLR 07/M04 A3011 RMK AO2 T00691039
KSVH 111525Z AUTO 21003KT 10SM CLR 06/M05 A3011 RMK AO2 T00601053
KSVH 111505Z AUTO 26004KT 10SM CLR 05/M05 A3012 RMK AO2 T00491048
KSVH 111445Z AUTO 23003KT 10SM CLR 03/M04 A3012 RMK AO2 T00291045
KSVH 111425Z AUTO 23004KT 10SM CLR 01/M04 A3012 RMK AO2 T00131045
KSVH 111405Z AUTO 00000KT 10SM CLR 00/M02 A3012 RMK AO2 T10031023
KSVH 111345Z AUTO 00000KT 10SM CLR M01/M03 A3012 RMK AO2 T10071029
KSVH 111325Z AUTO 00000KT 10SM CLR M02/M04 A3011 RMK AO2 T10211038
KSVH 111305Z AUTO 00000KT 10SM CLR M04/M05 A3011 RMK AO2 T10391053
KSVH 111245Z AUTO 00000KT 10SM CLR M04/M05 A3011 RMK AO2 T10361049
KSVH 111225Z AUTO 22004KT 10SM CLR M05/M07 A3010 RMK AO2 T10541067
KSVH 111205Z AUTO 00000KT 10SM CLR M03/M04 A3010 RMK AO2 T10301044
KSVH 111145Z AUTO 00000KT 10SM CLR M05/M06 A3009 RMK AO2 T10461061
KSVH 111125Z AUTO 24003KT 10SM CLR M05/M06 A3009 RMK AO2 T10471060
KSVH 111105Z AUTO 24003KT 10SM CLR M05/M06 A3009 RMK AO2 T10471060
KSVH 111045Z AUTO 00000KT 10SM CLR M03/M04 A3009 RMK AO2 T10291044
KSVH 111025Z AUTO 00000KT 10SM CLR M03/M04 A3009 RMK AO2 T10311045
KSVH 111005Z AUTO 21003KT 10SM CLR M03/M05 A3009 RMK AO2 T10311050
KSVH 110945Z AUTO 24003KT 10SM CLR M04/M05 A3009 RMK AO2 T10371051
KSVH 110925Z AUTO 22003KT 10SM CLR M04/M06 A3009 RMK AO2 T10441058
KSVH 110905Z AUTO 00000KT 10SM CLR M03/M04 A3009 RMK AO2 T10261041
KSVH 110845Z AUTO 00000KT 10SM CLR M03/M05 A3009 RMK AO2 T10331047
KSVH 110825Z AUTO 00000KT 10SM CLR M02/M05 A3009 RMK AO2 T10191048
KSVH 110805Z AUTO 00000KT 10SM CLR M02/M05 A3009 RMK AO2 T10161052
KSVH 110745Z AUTO 00000KT 10SM CLR M01/M05 A3010 RMK AO2 T10111055
KSVH 110725Z AUTO 23003KT 10SM CLR M01/M05 A3010 RMK AO2 T10141051
KSVH 110705Z AUTO 24003KT 10SM CLR M02/M04 A3010 RMK AO2 T10241038
KSVH 110645Z AUTO 22004KT 10SM CLR M03/M04 A3011 RMK AO2 T10271041
KSVH 110625Z AUTO 21003KT 10SM CLR M04/M05 A3010 RMK AO2 T10391053
KSVH 110605Z AUTO 00000KT 10SM CLR M04/M05 A3010 RMK AO2 T10411055
KSVH 110545Z AUTO 00000KT 10SM CLR M02/M04 A3011 RMK AO2 T10221043
KSVH 110525Z AUTO 00000KT 10SM CLR M03/M05 A3012 RMK AO2 T10271051
KSVH 110505Z AUTO 00000KT 10SM CLR M03/M04 A3011 RMK AO2 T10301044
KSVH 110445Z AUTO 00000KT 10SM CLR M02/M04 A3011 RMK AO2 T10251044
KSVH 110425Z AUTO 29003KT 10SM CLR M01/M05 A3011 RMK AO2 T10111052
KSVH 110405Z AUTO 00000KT 10SM CLR M01/M05 A3011 RMK AO2 T10091054
KSVH 110345Z AUTO 00000KT 10SM CLR 00/M05 A3011 RMK AO2 T10051052
KSVH 110325Z AUTO 00000KT 10SM CLR M01/M06 A3011 RMK AO2 T10071056
KSVH 110305Z AUTO 00000KT 10SM CLR M01/M04 A3010 RMK AO2 T10121039
KSVH 110245Z AUTO 22003KT 10SM CLR M02/M04 A3010 RMK AO2 T10231037
KSVH 110225Z AUTO 21003KT 10SM CLR 00/M06 A3011 RMK AO2 T00001059
KSVH 110205Z AUTO 00000KT 10SM CLR M01/M06 A3011 RMK AO2 T10071060
KSVH 110145Z AUTO 00000KT 10SM CLR 00/M06 A3011 RMK AO2 T00021062
KSVH 110125Z AUTO 21004KT 10SM CLR 00/M05 A3011 RMK AO2 T10011052
KSVH 110105Z AUTO 22004KT 10SM CLR 00/M05 A3011 RMK AO2 T10041053
KSVH 110045Z AUTO 22004KT 10SM CLR 00/M06 A3011 RMK AO2 T00011056
KSVH 110025Z AUTO 22004KT 10SM CLR 00/M05 A3011 RMK AO2 T00011052
KSVH 110005Z AUTO 21004KT 10SM CLR 00/M04 A3011 RMK AO2 T10021042
KSVH 102345Z AUTO 23003KT 10SM CLR 00/M04 A3011 RMK AO2 T10051039
KSVH 102325Z AUTO 20003KT 10SM CLR 01/M06 A3011 RMK AO2 T00061056
KSVH 102305Z AUTO 21003KT 10SM CLR 00/M04 A3011 RMK AO2 T10011039
KSVH 102245Z AUTO 00000KT 10SM CLR 01/M06 A3011 RMK AO2 T00131061
KSVH 102225Z AUTO 00000KT 10SM CLR 02/M07 A3011 RMK AO2 T00201066
KSVH 102205Z AUTO 21003KT 10SM CLR 03/M07 A3012 RMK AO2 T00261068
KSVH 102145Z AUTO 21005KT 10SM CLR 03/M07 A3012 RMK AO2 T00321070
KSVH 102125Z AUTO 20004KT 10SM CLR 04/M07 A3011 RMK AO2 T00371072
KSVH 102105Z AUTO 20004KT 10SM CLR 04/M07 A3011 RMK AO2 T00401073
KSVH 102045Z AUTO 22005KT 10SM CLR 04/M07 A3011 RMK AO2 T00431072
KSVH 102025Z AUTO 20005KT 10SM CLR 05/M07 A3011 RMK AO2 T00461074
KSVH 102005Z AUTO 20004KT 10SM CLR 05/M08 A3011 RMK AO2 T00451083
KSVH 101945Z AUTO 21006KT 10SM CLR 05/M07 A3011 RMK AO2 T00451075
KSVH 101925Z AUTO 25003KT 10SM CLR 04/M08 A3011 RMK AO2 T00411082
KSVH 101905Z AUTO 23004KT 10SM CLR 04/M08 A3012 RMK AO2 T00411082
KSVH 101845Z AUTO 24004KT 10SM CLR 04/M08 A3013 RMK AO2 T00371081
KSVH 101825Z AUTO 23005KT 10SM CLR 04/M08 A3014 RMK AO2 T00351085
KSVH 101805Z AUTO 27004KT 10SM CLR 03/M09 A3015 RMK AO2 T00301086
KSVH 101745Z AUTO 00000KT 10SM CLR 03/M09 A3016 RMK AO2 T00261088
KSVH 101725Z AUTO 25007KT 10SM CLR 02/M09 A3018 RMK AO2 T00231090
KSVH 101705Z AUTO 24006KT 220V280 10SM CLR 02/M09 A3018 RMK AO2 T00201090
KSVH 101645Z AUTO 27008KT 10SM CLR 02/M09 A3018 RMK AO2 T00191093
KSVH 101625Z AUTO 28006KT 10SM CLR 01/M09 A3020 RMK AO2 T00121090
KSVH 101605Z AUTO 27004KT 10SM CLR 01/M08 A3020 RMK AO2 T00081085
KSVH 101545Z AUTO 29004KT 10SM CLR 01/M08 A3021 RMK AO2 T00051077
KSVH 101525Z AUTO 26004KT 10SM CLR 00/M08 A3021 RMK AO2 T00031084
KSVH 101505Z AUTO 26005KT 10SM CLR 00/M09 A3020 RMK AO2 T00001089
KSVH 101445Z AUTO 25005KT 10SM CLR 00/M08 A3020 RMK AO2 T10021085
KSVH 101425Z AUTO 00000KT 10SM CLR M01/M08 A3019 RMK AO2 T10071084
KSVH 101405Z AUTO 25006KT 10SM CLR M02/M08 A3019 RMK AO2 T10171079
KSVH 101345Z AUTO 24004KT 10SM CLR M02/M08 A3018 RMK AO2 T10201080
KSVH 101325Z AUTO 24005KT 10SM CLR M03/M07 A3017 RMK AO2 T10291069
KSVH 101305Z AUTO 20003KT 10SM CLR M03/M08 A3016 RMK AO2 T10261080
KSVH 101245Z AUTO 24005KT 10SM CLR M05/M06 A3014 RMK AO2 T10461059
KSVH 101225Z AUTO 23003KT 10SM CLR M04/M08 A3014 RMK AO2 T10361078
KSVH 101205Z AUTO 18004KT 10SM CLR M03/M08 A3013 RMK AO2 T10281085
KSVH 101145Z AUTO 26008KT 10SM CLR M03/M08 A3012 RMK AO2 T10311079
KSVH 101125Z AUTO 21003KT 10SM CLR M03/M08 A3011 RMK AO2 T10321080
KSVH 101105Z AUTO 24007KT 10SM CLR M04/M06 A3011 RMK AO2 T10401058